KEFD/EFD METAR and TAF weather

Enter ICAO airport designator
Station Type Date Time Source
KEFD METAR 2019/06/16 05:50 UTC NOAA

KEFD 160550Z 15010KT 10SM FEW030 FEW250 27/23 A2991


Station Type Date Time Source
KEFD Decoded METAR 2019/06/16 05:50 UTC NOAA

Houston / Ellington, TX, United States (KEFD) 29-36N 095-10W
Jun 16, 2019 - 01:50 AM EDT / 2019.06.16 0550 UTC
Wind: from the SSE (150 degrees) at 12 MPH (10 KT):0
Visibility: 10 mile(s):0
Sky conditions: mostly clear
Temperature: 80 F (27 C)
Dew Point: 73 F (23 C)
Relative Humidity: 78%
Pressure (altimeter): 29.91 in. Hg (1012 hPa)
ob: KEFD 160550Z 15010KT 10SM FEW030 FEW250 27/23 A2991
cycle: 6

Station Type Date Time Source
KEFD TAF 2019/06/16 04:29 UTC NOAA

TAF KEFD 160400Z 1604/1710 16009KT 9999 SCT020 QNH2988INS
BECMG 1614/1615 18015G20KT 9999 FEW065 QNH2988INS
BECMG 1623/1624 16015G20KT 9999 BKN025 QNH2986INS
BECMG 1705/1706 16009KT 8000 BR SCT015 QNH2988INS
BECMG 1708/1709 16009KT 8000 -SHRA BKN015 QNH2987INS TX31/1617Z TN24/1610Z

Example: see airport list